createdAt,value
2016-03-28T12:33:44.599Z,4636
2016-03-28T12:33:56.942Z,4756
2016-03-28T12:34:57.117Z,4920
2016-03-28T12:35:57.183Z,5596
2016-03-28T12:36:57.201Z,4404
2016-03-28T12:37:57.297Z,3384
2016-03-28T12:38:57.222Z,3548
2016-03-28T12:39:57.240Z,4296
2016-03-28T12:40:57.274Z,5856
2016-03-28T12:41:57.289Z,4160
2016-03-28T12:42:57.310Z,3808
2016-03-28T12:43:57.315Z,3612
2016-03-28T12:44:57.178Z,3652
2016-03-28T12:45:57.340Z,3636
2016-03-28T12:46:57.362Z,4708
2016-03-28T12:47:57.376Z,4232
2016-03-28T12:48:57.405Z,3768
2016-03-28T12:49:57.420Z,3944
2016-03-28T12:50:57.433Z,4176
2016-03-28T12:51:57.463Z,5356
2016-03-28T12:52:57.479Z,4092
2016-03-28T12:53:57.495Z,4928
2016-03-28T12:54:57.527Z,4756
2016-03-28T12:55:57.545Z,4148
2016-03-28T12:56:57.607Z,3396
2016-03-28T12:57:57.625Z,3132
2016-03-28T12:58:57.644Z,2824
2016-03-28T12:59:57.662Z,3368
2016-03-28T13:00:57.696Z,5296
2016-03-28T13:01:57.713Z,4084
2016-03-28T13:02:57.732Z,5632
2016-03-28T13:03:57.765Z,3184
2016-03-28T13:04:57.798Z,2924
2016-03-28T13:05:57.817Z,2960
2016-03-28T13:06:57.835Z,3040
2016-03-28T13:07:57.963Z,2920
2016-03-28T13:08:57.902Z,2920
2016-03-28T13:09:57.921Z,2868
2016-03-28T13:10:57.939Z,2892
2016-03-28T13:11:58.004Z,2868
2016-03-28T13:12:57.991Z,2912
2016-03-28T13:13:58.025Z,3004
2016-03-28T13:14:58.043Z,3016
2016-03-28T13:15:58.077Z,3132
2016-03-28T13:16:58.112Z,3224
2016-03-28T13:17:58.145Z,3376
2016-03-28T13:18:58.163Z,3364
2016-03-28T13:19:58.182Z,3264
2016-03-28T13:20:58.232Z,3340
2016-03-28T13:21:58.218Z,3088
2016-03-28T13:22:58.253Z,2800
2016-03-28T13:23:58.270Z,2584
2016-03-28T13:24:58.289Z,2416
2016-03-28T13:25:58.323Z,2240
2016-03-28T13:26:58.341Z,2144
2016-03-28T13:27:58.391Z,2084
2016-03-28T13:28:58.409Z,2136
2016-03-28T13:29:58.817Z,2180
2016-03-28T13:30:58.430Z,2292
2016-03-28T13:31:58.480Z,2360
2016-03-28T13:32:58.341Z,2412
2016-03-28T13:33:58.516Z,2432
2016-03-28T13:34:58.550Z,2368
2016-03-28T13:35:58.569Z,2324
2016-03-28T13:36:58.696Z,2304
2016-03-28T13:37:58.636Z,2344
2016-03-28T13:38:58.655Z,2576
2016-03-28T13:39:58.673Z,2392
2016-03-28T13:40:58.691Z,2300
2016-03-28T13:41:58.725Z,2208
2016-03-28T13:42:58.759Z,2108
2016-03-28T13:43:58.777Z,1976
2016-03-28T13:44:58.796Z,1920
2016-03-28T13:45:58.830Z,1900
2016-03-28T13:46:58.863Z,1892
2016-03-28T13:47:58.882Z,1916
2016-03-28T13:48:58.900Z,1976
2016-03-28T13:49:58.918Z,2052
2016-03-28T13:50:58.953Z,2116
2016-03-28T13:51:58.986Z,2212
2016-03-28T13:52:58.990Z,2168
2016-03-28T13:53:59.023Z,2188
2016-03-28T13:54:58.885Z,2212
2016-03-28T13:55:59.060Z,2240
2016-03-28T13:56:59.094Z,2220
2016-03-28T13:57:59.128Z,2164
2016-03-28T13:58:59.145Z,2088
2016-03-28T13:59:59.055Z,2040
2016-03-28T14:00:59.202Z,2052
2016-03-28T14:01:59.205Z,2072
2016-03-28T14:02:59.239Z,2092
2016-03-28T14:03:59.273Z,2132
2016-03-28T14:04:59.291Z,2180
2016-03-28T14:05:59.310Z,2216
2016-03-28T14:06:59.329Z,2224
2016-03-28T14:07:59.364Z,2160
2016-03-28T14:08:59.397Z,2092
2016-03-28T14:09:59.400Z,2028
2016-03-28T14:10:59.433Z,1980
2016-03-28T14:11:59.452Z,1952
2016-03-28T14:12:59.470Z,1968
2016-03-28T14:13:59.505Z,2020
2016-03-28T14:14:59.522Z,2072
2016-03-28T14:15:59.557Z,2104
2016-03-28T14:16:59.560Z,2056
2016-03-28T14:17:59.608Z,2052
2016-03-28T14:18:59.611Z,2012
2016-03-28T14:19:59.630Z,2036
2016-03-28T14:20:59.664Z,2080
2016-03-28T14:21:59.761Z,2092
2016-03-28T14:22:59.716Z,2076
2016-03-28T14:23:59.735Z,2036
2016-03-28T14:24:59.753Z,1972
2016-03-28T14:25:59.771Z,2008
2016-03-28T14:26:59.790Z,2076
2016-03-28T14:27:59.855Z,2316
2016-03-28T14:28:59.857Z,2200
2016-03-28T14:29:59.860Z,2192
2016-03-28T14:30:59.894Z,2112
2016-03-28T14:31:59.912Z,1980
2016-03-28T14:32:59.915Z,1888
2016-03-28T14:33:59.965Z,2088
2016-03-28T14:34:59.983Z,3664
2016-03-28T14:36:00.001Z,2064
2016-03-28T14:37:00.020Z,2420
2016-03-28T14:38:00.054Z,2992
2016-03-28T14:39:00.072Z,2424
2016-03-28T14:40:00.090Z,2212
2016-03-28T14:41:00.125Z,2312
2016-03-28T14:42:00.142Z,2024
2016-03-28T14:43:00.176Z,1800
2016-03-28T14:44:00.179Z,1648
2016-03-28T14:45:00.213Z,1496
2016-03-28T14:46:00.231Z,1452
2016-03-28T14:47:00.141Z,1424
2016-03-28T14:48:00.268Z,1384
2016-03-28T14:49:00.286Z,1324
2016-03-28T14:50:00.320Z,1328
2016-03-28T14:51:00.338Z,1324
2016-03-28T14:52:00.373Z,1316
2016-03-28T14:53:00.391Z,1324
2016-03-28T14:54:00.441Z,1336
2016-03-28T14:55:00.443Z,1340
2016-03-28T14:56:00.477Z,1324
2016-03-28T14:57:00.511Z,1340
2016-03-28T14:58:00.499Z,1348
2016-03-28T14:59:00.532Z,1296
2016-03-28T15:00:00.535Z,1196
2016-03-28T15:01:00.554Z,1104
2016-03-28T15:02:00.587Z,1016
2016-03-28T15:03:00.605Z,932
2016-03-28T15:04:00.639Z,888
2016-03-28T15:05:00.657Z,872
2016-03-28T15:06:00.520Z,896
2016-03-28T15:07:00.709Z,916
2016-03-28T15:08:00.728Z,920
2016-03-28T15:09:00.746Z,956
2016-03-28T15:10:00.764Z,972
2016-03-28T15:11:00.798Z,1160
2016-03-28T15:12:00.817Z,1320
2016-03-28T15:13:00.835Z,1388
2016-03-28T15:14:00.869Z,1516
2016-03-28T15:15:00.872Z,1616
2016-03-28T15:16:00.906Z,1616
2016-03-28T15:17:00.955Z,1552
2016-03-28T15:18:00.958Z,1536
2016-03-28T15:19:00.961Z,1580
2016-03-28T15:20:01.041Z,2676
2016-03-28T15:21:01.013Z,2372
2016-03-28T15:22:01.031Z,1912
2016-03-28T15:23:01.065Z,2624
2016-03-28T15:24:01.099Z,1452
2016-03-28T15:25:01.086Z,1440
2016-03-28T15:26:01.104Z,1284
2016-03-28T15:27:01.154Z,1252
2016-03-28T15:28:01.188Z,1220
2016-03-28T15:29:01.066Z,1092
2016-03-28T15:30:01.068Z,1012
2016-03-28T15:31:01.243Z,964
2016-03-28T15:32:01.246Z,972
2016-03-28T15:33:01.310Z,984
2016-03-28T15:34:01.298Z,1024
2016-03-28T15:35:01.316Z,1028
2016-03-28T15:36:01.350Z,988
2016-03-28T15:37:01.368Z,976
2016-03-28T15:38:01.387Z,968
2016-03-28T15:39:01.623Z,936
2016-03-28T15:40:01.454Z,936
2016-03-28T15:41:01.473Z,924
2016-03-28T15:42:01.475Z,948
2016-03-28T15:43:01.494Z,924
2016-03-28T15:44:01.528Z,920
2016-03-28T15:45:01.531Z,964
2016-03-28T15:46:01.549Z,972
2016-03-28T15:47:01.583Z,996
2016-03-28T15:48:01.601Z,1024
2016-03-28T15:49:01.635Z,1052
2016-03-28T15:50:01.653Z,1056
2016-03-28T15:51:01.672Z,1060
2016-03-28T15:52:01.674Z,1080
2016-03-28T15:53:01.708Z,1044
2016-03-28T15:54:01.727Z,1100
2016-03-28T15:55:01.744Z,1108
2016-03-28T15:56:01.826Z,1092
2016-03-28T15:57:01.782Z,1052
2016-03-28T15:58:01.815Z,1032
2016-03-28T15:59:01.849Z,1076
2016-03-28T16:00:01.852Z,1128
2016-03-28T16:01:01.886Z,1184
2016-03-28T16:02:01.951Z,1184
2016-03-28T16:03:01.938Z,1496
2016-03-28T16:04:01.941Z,1324
2016-03-28T16:05:01.959Z,1020
2016-03-28T16:06:01.993Z,1952
2016-03-28T16:07:02.012Z,908
2016-03-28T16:08:02.014Z,1504
2016-03-28T16:09:02.064Z,1844
2016-03-28T16:10:02.082Z,1808
2016-03-28T16:11:02.100Z,1776
2016-03-28T16:12:02.119Z,1752
2016-03-28T16:13:02.153Z,1732
2016-03-28T16:14:02.155Z,1712
2016-03-28T16:15:02.189Z,1688
2016-03-28T16:16:02.192Z,1652
2016-03-28T16:17:02.226Z,1624
2016-03-28T16:18:02.244Z,1592
2016-03-28T16:19:02.263Z,1584
2016-03-28T16:20:02.281Z,1852
2016-03-28T16:21:02.299Z,2308
2016-03-28T16:22:02.317Z,2816
2016-03-28T16:23:02.336Z,2860
2016-03-28T16:24:02.369Z,2916
2016-03-28T16:25:02.419Z,4012
2016-03-28T16:26:02.407Z,5028
2016-03-28T16:27:02.424Z,3976
2016-03-28T16:28:02.287Z,2724
2016-03-28T16:29:02.477Z,644
2016-03-28T16:30:02.495Z,1364
2016-03-28T16:31:02.513Z,664
2016-03-28T16:32:02.563Z,1472
2016-03-28T16:33:02.551Z,3184
2016-03-28T16:34:02.584Z,2856
2016-03-28T16:35:02.587Z,3036
2016-03-28T16:36:02.621Z,2724
2016-03-28T16:37:02.639Z,1076
2016-03-28T16:38:02.673Z,2628
2016-03-28T16:39:02.676Z,1332
2016-03-28T16:40:02.710Z,2916
2016-03-28T16:41:02.743Z,1584
2016-03-28T16:42:02.762Z,3736
2016-03-28T16:43:02.795Z,2448
2016-03-28T16:44:02.798Z,1448
2016-03-28T16:45:02.833Z,1440
2016-03-28T16:46:02.852Z,576
2016-03-28T16:47:02.871Z,1276
2016-03-28T16:48:02.904Z,540
2016-03-28T16:49:02.907Z,2160
2016-03-28T16:50:02.940Z,1928
2016-03-28T16:51:02.943Z,1628
2016-03-28T16:52:02.977Z,1264
2016-03-28T16:53:02.995Z,1116
2016-03-28T16:54:03.092Z,1200
2016-03-28T16:55:03.032Z,1240
2016-03-28T16:56:03.067Z,760
2016-03-28T16:57:03.101Z,532
2016-03-28T16:58:03.103Z,500
2016-03-28T16:59:03.137Z,484
2016-03-28T17:00:03.140Z,472
2016-03-28T17:01:03.158Z,488
2016-03-28T17:02:03.192Z,480
2016-03-28T17:03:03.210Z,516
2016-03-28T17:04:03.244Z,652
2016-03-28T17:05:03.230Z,664
2016-03-28T17:06:03.266Z,452
2016-03-28T17:07:03.314Z,388
2016-03-28T17:08:03.302Z,416
2016-03-28T17:09:03.602Z,324
2016-03-28T17:10:03.354Z,296
2016-03-28T17:11:03.388Z,288
2016-03-28T17:12:03.407Z,280
2016-03-28T17:13:03.424Z,272
2016-03-28T17:14:03.427Z,260
2016-03-28T17:15:03.461Z,248
2016-03-28T17:16:03.479Z,236
2016-03-28T17:17:03.514Z,224
2016-03-28T17:18:03.532Z,216
2016-03-28T17:19:03.566Z,208
2016-03-28T17:20:03.587Z,200
2016-03-28T17:21:03.618Z,192
2016-03-28T17:22:03.465Z,180
2016-03-28T17:23:03.624Z,168
2016-03-28T17:24:09.406Z,160
2016-03-28T17:25:03.659Z,152
2016-03-28T17:26:03.694Z,140
2016-03-28T17:27:03.696Z,132
2016-03-28T17:28:03.714Z,124
2016-03-28T17:29:03.733Z,116
2016-03-28T17:30:03.766Z,108
2016-03-28T17:31:03.785Z,100
2016-03-28T17:32:03.803Z,92
2016-03-28T17:33:03.837Z,84
2016-03-28T17:34:03.824Z,76
2016-03-28T17:35:03.889Z,68
2016-03-28T17:36:03.892Z,60
2016-03-28T17:37:03.910Z,56
2016-03-28T17:38:03.929Z,48
2016-03-28T17:39:04.088Z,44
2016-03-28T17:40:03.965Z,36
2016-03-28T17:41:03.984Z,32
2016-03-28T17:42:04.002Z,32
2016-03-28T17:43:04.051Z,24
2016-03-28T17:44:04.038Z,24
2016-03-28T17:45:04.073Z,20
2016-03-28T17:46:04.076Z,16
2016-03-28T17:47:04.093Z,16
2016-03-28T17:48:04.128Z,16
2016-03-28T17:49:04.130Z,12
2016-03-28T17:50:04.179Z,8
2016-03-28T17:51:04.167Z,8
2016-03-28T17:52:04.184Z,8
2016-03-28T17:53:04.218Z,8
2016-03-28T17:54:04.330Z,4
2016-03-28T17:55:04.239Z,4
2016-03-28T17:56:04.274Z,4
2016-03-28T17:57:04.323Z,4
2016-03-28T17:58:04.341Z,4
2016-03-28T17:59:04.344Z,0
2016-03-28T18:00:04.347Z,0
2016-03-28T18:01:04.366Z,4
2016-03-28T18:02:04.383Z,4
2016-03-28T18:03:04.402Z,4
2016-03-28T18:04:04.421Z,0
2016-03-28T18:05:04.469Z,0
2016-03-28T18:06:04.441Z,0
2016-03-28T18:07:04.474Z,0
2016-03-28T18:08:04.477Z,0
2016-03-28T18:09:04.512Z,0
2016-03-28T18:10:04.529Z,0
2016-03-28T18:11:04.548Z,0
2016-03-28T18:12:04.551Z,0
2016-03-28T18:13:04.632Z,0
2016-03-28T18:14:04.618Z,0
2016-03-28T18:15:04.621Z,0
2016-03-28T18:16:04.656Z,0
2016-03-28T18:17:04.658Z,0
2016-03-28T18:18:04.692Z,0
2016-03-28T18:19:04.711Z,0
2016-03-28T18:20:04.745Z,0
2016-03-28T18:21:04.716Z,0
2016-03-28T18:22:04.734Z,0
2016-03-28T18:23:04.784Z,0
2016-03-28T18:24:04.771Z,0
2016-03-28T18:25:04.789Z,0
2016-03-28T18:26:04.839Z,0
2016-03-28T18:27:04.842Z,0
2016-03-28T18:28:04.860Z,0
2016-03-28T18:29:04.863Z,0
2016-03-28T18:30:04.881Z,0
2016-03-28T18:31:04.914Z,0
2016-03-28T18:32:04.933Z,0
2016-03-28T18:33:04.967Z,0
2016-03-28T18:34:04.969Z,0
2016-03-28T18:35:04.988Z,0
2016-03-28T18:36:05.022Z,0
2016-03-28T18:37:05.024Z,0
2016-03-28T18:38:05.043Z,0
2016-03-28T18:39:05.045Z,0
2016-03-28T18:40:05.064Z,0
2016-03-28T18:41:05.082Z,0
2016-03-28T18:42:05.116Z,0
2016-03-28T18:43:05.118Z,0
2016-03-28T18:44:05.153Z,0
2016-03-28T18:45:05.171Z,0
2016-03-28T18:46:05.173Z,0
2016-03-28T18:47:05.207Z,0
2016-03-28T18:48:05.242Z,0
2016-03-28T18:49:05.245Z,0
2016-03-28T18:50:05.263Z,0
2016-03-28T18:51:05.265Z,0
2016-03-28T18:52:05.175Z,0
2016-03-28T18:53:05.286Z,0
2016-03-28T18:54:05.320Z,0
2016-03-28T18:55:05.339Z,0
2016-03-28T18:56:05.341Z,0
2016-03-28T18:57:05.391Z,0
2016-03-28T18:58:05.409Z,0
2016-03-28T18:59:05.412Z,0
2016-03-28T19:00:05.430Z,0
2016-03-28T19:01:05.449Z,0
2016-03-28T19:02:05.466Z,0
2016-03-28T19:03:05.470Z,0
2016-03-28T19:04:05.488Z,0
2016-03-28T19:05:05.505Z,0
2016-03-28T19:06:05.525Z,0
2016-03-28T19:07:05.386Z,0
2016-03-28T19:08:05.541Z,0
2016-03-28T19:09:05.560Z,0
2016-03-28T19:10:05.594Z,0
2016-03-28T19:11:05.597Z,0
2016-03-28T19:12:05.615Z,0
2016-03-28T19:13:05.633Z,0
2016-03-28T19:14:05.652Z,0
2016-03-28T19:15:05.669Z,0
2016-03-28T19:16:05.703Z,0
2016-03-28T19:17:05.721Z,0
2016-03-28T19:18:05.725Z,0
2016-03-28T19:19:05.743Z,0
2016-03-28T19:20:05.761Z,0
2016-03-28T19:21:05.796Z,0
2016-03-28T19:22:05.782Z,0
2016-03-28T19:23:05.801Z,0
2016-03-28T19:24:05.819Z,0
2016-03-28T19:25:05.852Z,0
2016-03-28T19:26:05.902Z,0
2016-03-28T19:27:05.874Z,0
2016-03-28T19:28:05.876Z,0
2016-03-28T19:29:05.896Z,0
2016-03-28T19:30:05.913Z,0
2016-03-28T19:31:05.931Z,0
2016-03-28T19:32:05.966Z,0
2016-03-28T19:33:05.984Z,0
2016-03-28T19:34:06.034Z,0
2016-03-28T19:35:06.005Z,0
2016-03-28T19:36:06.039Z,0
2016-03-28T19:37:06.073Z,0
2016-03-28T19:38:06.060Z,0
2016-03-28T19:39:06.078Z,0
2016-03-28T19:40:06.064Z,0
2016-03-28T19:41:06.100Z,0
2016-03-28T19:42:06.117Z,0
2016-03-28T19:43:06.119Z,0
2016-03-28T19:44:06.154Z,0
2016-03-28T19:45:06.188Z,0
2016-03-28T19:46:06.191Z,0
2016-03-28T19:47:06.194Z,0
2016-03-28T19:48:06.258Z,0
2016-03-28T19:49:06.230Z,0
2016-03-28T19:50:06.249Z,0
2016-03-28T19:51:06.266Z,0
2016-03-28T19:52:06.285Z,0
2016-03-28T19:53:06.303Z,0
2016-03-28T19:54:06.181Z,0
2016-03-28T19:55:06.324Z,0
2016-03-28T19:56:06.374Z,0
2016-03-28T19:57:06.361Z,0
2016-03-28T19:58:06.395Z,0
2016-03-28T19:59:06.413Z,0
2016-03-28T20:00:06.431Z,0
2016-03-28T20:01:06.434Z,0
2016-03-28T20:02:06.468Z,0
2016-03-28T20:03:06.455Z,0
2016-03-28T20:04:06.489Z,0
2016-03-28T20:05:06.507Z,0
2016-03-28T20:06:06.510Z,0
2016-03-28T20:07:06.528Z,0
2016-03-28T20:08:06.562Z,0
2016-03-28T20:09:06.565Z,0
2016-03-28T20:10:06.583Z,0
2016-03-28T20:11:06.617Z,0
2016-03-28T20:12:06.620Z,0
2016-03-28T20:13:06.639Z,0
2016-03-28T20:14:06.657Z,0
2016-03-28T20:15:06.659Z,0
2016-03-28T20:16:06.693Z,0
2016-03-28T20:17:06.743Z,0
2016-03-28T20:18:06.745Z,0
2016-03-28T20:19:06.732Z,0
2016-03-28T20:20:06.750Z,0
2016-03-28T20:21:06.769Z,0
2016-03-28T20:22:06.772Z,0
2016-03-28T20:23:06.806Z,0
2016-03-28T20:24:06.824Z,0
2016-03-28T20:25:06.888Z,0
2016-03-28T20:26:06.846Z,0
2016-03-28T20:27:07.066Z,0
2016-03-28T20:28:06.882Z,0
2016-03-28T20:29:06.884Z,0
2016-03-28T20:30:06.918Z,0
2016-03-28T20:31:06.952Z,0
2016-03-28T20:32:06.955Z,0
2016-03-28T20:33:06.957Z,0
2016-03-28T20:34:06.976Z,0
2016-03-28T20:35:07.010Z,0
2016-03-28T20:36:07.012Z,0
2016-03-28T20:37:07.031Z,0
2016-03-28T20:38:07.048Z,0
2016-03-28T20:39:07.068Z,0
2016-03-28T20:40:07.086Z,0
2016-03-28T20:41:07.089Z,0
2016-03-28T20:42:07.107Z,0
2016-03-28T20:43:07.141Z,0
2016-03-28T20:44:07.159Z,0
2016-03-28T20:45:07.178Z,0
2016-03-28T20:46:07.195Z,0
2016-03-28T20:47:07.244Z,0
2016-03-28T20:48:07.232Z,0
2016-03-28T20:49:07.235Z,0
2016-03-28T20:50:07.253Z,0
2016-03-28T20:51:07.272Z,0
2016-03-28T20:52:07.290Z,0
2016-03-28T20:53:07.293Z,0
2016-03-28T20:54:07.311Z,0
2016-03-28T20:55:07.173Z,0
2016-03-28T20:56:07.347Z,0
2016-03-28T20:57:07.382Z,0
2016-03-28T20:58:07.368Z,0
2016-03-28T20:59:07.403Z,0
2016-03-28T21:00:07.437Z,0
2016-03-28T21:01:07.423Z,0
2016-03-28T21:02:07.458Z,0
2016-03-28T21:03:07.460Z,0
2016-03-28T21:04:07.479Z,0
2016-03-28T21:05:07.481Z,0
2016-03-28T21:06:07.499Z,0
2016-03-28T21:07:07.517Z,0
2016-03-28T21:08:07.552Z,0
2016-03-28T21:09:07.726Z,0
2016-03-28T21:10:07.572Z,0
2016-03-28T21:11:07.575Z,0
2016-03-28T21:12:07.609Z,0
2016-03-28T21:13:07.628Z,0
2016-03-28T21:14:07.631Z,0
2016-03-28T21:15:07.664Z,0
2016-03-28T21:16:07.683Z,0
2016-03-28T21:17:07.717Z,0
2016-03-28T21:18:07.719Z,0
2016-03-28T21:19:07.722Z,0
2016-03-28T21:20:07.740Z,0
2016-03-28T21:21:07.744Z,0
2016-03-28T21:22:07.761Z,0
2016-03-28T21:23:07.810Z,0
2016-03-28T21:24:07.797Z,0
2016-03-28T21:25:07.832Z,0
2016-03-28T21:26:07.835Z,0
2016-03-28T21:27:07.853Z,0
2016-03-28T21:28:07.871Z,0
2016-03-28T21:29:07.874Z,0
2016-03-28T21:30:07.893Z,0
2016-03-28T21:31:07.910Z,0
2016-03-28T21:32:07.928Z,0
2016-03-28T21:33:07.946Z,0
2016-03-28T21:34:07.981Z,0
2016-03-28T21:35:07.984Z,0
2016-03-28T21:36:08.018Z,0
2016-03-28T21:37:08.004Z,0
2016-03-28T21:38:08.039Z,0
2016-03-28T21:39:08.073Z,0
2016-03-28T21:40:07.981Z,0
2016-03-28T21:41:08.062Z,0
2016-03-28T21:42:08.095Z,0
2016-03-28T21:43:08.099Z,0
2016-03-28T21:44:08.117Z,0
2016-03-28T21:45:08.136Z,0
2016-03-28T21:46:08.154Z,0
2016-03-28T21:47:08.156Z,0
2016-03-28T21:48:08.170Z,0
2016-03-28T21:49:08.195Z,0
2016-03-28T21:50:08.189Z,0
2016-03-28T21:51:08.229Z,0
2016-03-28T21:52:08.254Z,0
2016-03-28T21:53:08.250Z,0
2016-03-28T21:54:08.235Z,0
2016-03-28T21:55:08.359Z,0
2016-03-28T21:56:08.248Z,0
2016-03-28T21:57:08.281Z,0
2016-03-28T21:58:08.281Z,0
2016-03-28T21:59:08.297Z,0
2016-03-28T22:00:08.314Z,0
2016-03-28T22:01:08.363Z,0
2016-03-28T22:02:08.349Z,0
2016-03-28T22:03:08.367Z,0
2016-03-28T22:04:08.370Z,0
2016-03-28T22:05:08.387Z,0
2016-03-28T22:06:08.404Z,0
2016-03-28T22:07:08.438Z,0
2016-03-28T22:08:08.426Z,0
2016-03-28T22:09:08.459Z,0
2016-03-28T22:10:08.555Z,0
2016-03-28T22:11:08.478Z,0
2016-03-28T22:12:08.496Z,0
2016-03-28T22:13:08.531Z,0
2016-03-28T22:14:08.643Z,0
2016-03-28T22:15:08.552Z,0
2016-03-28T22:16:08.570Z,0
2016-03-28T22:17:08.573Z,0
2016-03-28T22:18:08.590Z,0
2016-03-28T22:19:08.609Z,0
2016-03-28T22:20:08.673Z,0
2016-03-28T22:21:08.662Z,0
2016-03-28T22:22:08.664Z,0
2016-03-28T22:23:08.682Z,0
2016-03-28T22:24:08.701Z,0
2016-03-28T22:25:08.875Z,0
2016-03-28T22:26:08.722Z,0
2016-03-28T22:27:08.740Z,0
2016-03-28T22:28:08.758Z,0
2016-03-28T22:29:08.761Z,0
2016-03-28T22:30:08.795Z,0
2016-03-28T22:31:08.657Z,0
2016-03-28T22:32:08.800Z,0
2016-03-28T22:33:08.834Z,0
2016-03-28T22:34:08.837Z,0
2016-03-28T22:35:08.871Z,0
2016-03-28T22:36:08.874Z,0
2016-03-28T22:37:08.908Z,0
2016-03-28T22:38:08.925Z,0
2016-03-28T22:39:08.913Z,0
2016-03-28T22:40:09.010Z,0
2016-03-28T22:41:08.965Z,0
2016-03-28T22:42:08.968Z,0
2016-03-28T22:43:08.986Z,0
2016-03-28T22:44:08.988Z,0
2016-03-28T22:45:09.023Z,0
2016-03-28T22:46:09.026Z,0
2016-03-28T22:47:09.043Z,0
2016-03-28T22:48:09.062Z,0
2016-03-28T22:49:09.079Z,0
2016-03-28T22:50:09.099Z,0
2016-03-28T22:51:09.117Z,0
2016-03-28T22:52:09.135Z,0
2016-03-28T22:53:09.138Z,0
2016-03-28T22:54:09.140Z,0
2016-03-28T22:55:09.175Z,0
2016-03-28T22:56:09.193Z,0
2016-03-28T22:57:09.195Z,0
2016-03-28T22:58:09.214Z,0
2016-03-28T22:59:09.231Z,0
2016-03-28T23:00:09.282Z,0
2016-03-28T23:01:09.269Z,0
2016-03-28T23:02:09.272Z,0
2016-03-28T23:03:09.290Z,0
2016-03-28T23:04:09.308Z,0
2016-03-28T23:05:09.342Z,0
2016-03-28T23:06:09.345Z,0
2016-03-28T23:07:09.347Z,0
2016-03-28T23:08:09.350Z,0
2016-03-28T23:09:09.384Z,0
2016-03-28T23:10:09.419Z,0
2016-03-28T23:11:09.421Z,0
2016-03-28T23:12:09.424Z,0
2016-03-28T23:13:09.457Z,0
2016-03-28T23:14:09.491Z,0
2016-03-28T23:15:09.478Z,0
2016-03-28T23:16:09.482Z,0
2016-03-28T23:17:09.515Z,0
2016-03-28T23:18:09.517Z,0
2016-03-28T23:19:09.535Z,0
2016-03-28T23:20:09.570Z,0
2016-03-28T23:21:09.573Z,0
2016-03-28T23:22:09.591Z,0
2016-03-28T23:23:09.593Z,0
2016-03-28T23:24:09.612Z,0
2016-03-28T23:25:09.630Z,0
2016-03-28T23:26:09.634Z,0
2016-03-28T23:27:09.667Z,0
2016-03-28T23:28:09.700Z,0
2016-03-28T23:29:09.688Z,0
2016-03-28T23:30:09.706Z,0
2016-03-28T23:31:09.709Z,0
2016-03-28T23:32:09.728Z,0
2016-03-28T23:33:09.745Z,0
2016-03-28T23:34:09.764Z,0
2016-03-28T23:35:09.782Z,0
2016-03-28T23:36:09.786Z,0
2016-03-28T23:37:09.803Z,0
2016-03-28T23:38:09.805Z,0
2016-03-28T23:39:09.824Z,0
2016-03-28T23:40:09.842Z,0
2016-03-28T23:41:09.860Z,0
2016-03-28T23:42:09.723Z,0
2016-03-28T23:43:09.897Z,0
2016-03-28T23:44:09.900Z,0
2016-03-28T23:45:09.918Z,0
2016-03-28T23:46:09.937Z,0
2016-03-28T23:47:09.955Z,0
2016-03-28T23:48:09.988Z,0
2016-03-28T23:49:09.991Z,0
2016-03-28T23:50:09.994Z,0
2016-03-28T23:51:10.012Z,0
2016-03-28T23:52:10.031Z,0
2016-03-28T23:53:10.065Z,0
2016-03-28T23:54:10.068Z,0
2016-03-28T23:55:10.070Z,0
2016-03-28T23:56:10.089Z,0
2016-03-28T23:57:10.122Z,0
2016-03-28T23:58:10.125Z,0
2016-03-28T23:59:10.143Z,0
